Scroll down
FLIGHT INFORMATION
British Airways

BAW307

At Arrival Gate

EGCC
 EINN
DATE: 2019-03-07
GATE:  -
GATE DEPARTURE: 17:31
TAKEOFF: 17:46
DATE: 2019-03-07
GATE:  -
LANDING: 18:33
GATE ARRIVAL: 18:37
FLIGHT DATA
Crew: 
Speed: 
913 kph
Altitude: 
34,002 ft
Stage Length: 
450.4 km
Block Time: 
1.1 hrs
Flight Time: 
0.8 hrs
Fuel Used: 
486 kg
Cleared Route: EGCC ASMIM WAL PENIL BABRA GIGTO UNDUX SOPAX RAMOX OGTUG BAGSO PELIG DIGAN EINN
TRACK DATA
50,000 ft 1,000 kts
AIRCRAFT INFO AND CUMULATIVE STATS
Aircraft Type: 
B744
Registration: 
SELCAL: 
MSN/LN: 
0 / 1
Operator: 
Total Flights: 
6
Total Block Time: 
8.8 hrs
Total Flight Time: 
7.8 hrs
Total Fuel Used: 
78,999 kg
DATALINK LOG | Newest first | Current as of: 2022-09-25 18:26:00
LABEL SEQUENCE CONTENT Dn/Up
QD375618:37 28.1▼ Dn
QC331818:33▼ Dn
QB461917:46▼ Dn
QA310917:31 29.2▼ Dn
A73330CLEARANCE AVAIL WITHIN 0:25 OF EDT▲ Up
B33001EGCC EINN BAW307 G-CXZW C ▼ Dn
2U2653EGCC 071720Z AUTO 30013KT 9999 FEW018 07/04 Q0992 NOSIG▲ Up
A73037CLEARANCE AVAIL WITHIN 0:25 OF EDT▲ Up
B32713EGCC EINN BAW307 G-CXZW C ▼ Dn
2S2653EGCC▼ Dn
2U5149EGCC 071620Z AUTO 30014KT 9999 BKN017 BKN022 OVC048 08/04 Q0991 NOSIG▲ Up
2S5149EGCC▼ Dn
Q05352[LINK ACK]▲ Up
Q05114[LINK TEST]▼ Dn
Q03940[LINK ACK]▲ Up
Q03703[LINK TEST]▼ Dn


AIRCRAFT HISTORY
FLIGHT DATE FLIGHT NO. ORIGIN DESTINATION CLEARED ROUTE BLOCK TIME FLIGHT TIME FUEL USED PILOT
2019-09-25BAW1EHAM EGLL EHAM IDRID ABNED IBNOS XAMAN LOGAN EGLL1 hrs0.8 hrs21,188 lbMatthew Gales
2019-09-25BAW7ESSA EHAM ESSA DKR TIPIX LIBSI KOXIM ELPAX UMIXA KULUD ADVOP BEVUM ASVAN EKDIV ALS DEMIR DEGUL GOLEN KUBAT EEL EHAM1.8 hrs1.7 hrs41,488 lbMatthew Gales
2019-09-24BAW65LFBG ESSA LFBG POI PEPAX NIK TRARE TOLEN BATOB DOSUR TALSA AMTOT EVBAS DEKIK VEPIP BEDOS NEFYN MIKNA PELUP NILUG ESSA2.7 hrs2.6 hrs55,518 lbMatthew Gales
2019-09-24BAW154EGLL LFBG EGLL SAM DOMOK DIN GODAN TERPO NTS USODA LUGEN TUPAR CNA LFBG1.2 hrs1 hrs29,389 lbMatthew Gales
2019-09-24BAW924EINN EGLL EINN ABAGU SLANY STU NUMPO OKESI BEDEK EGLL1.1 hrs0.9 hrs25,509 lbMatthew Gales
2019-03-07BAW307EGCC EINN EGCC ASMIM WAL PENIL BABRA GIGTO UNDUX SOPAX RAMOX OGTUG BAGSO PELIG DIGAN EINN1.1 hrs0.8 hrs1,072 lb-HIDDEN-